createdAt,value
2022-07-29T00:01:19.276Z,61.90
2022-07-29T00:03:47.314Z,61.84
2022-07-29T00:06:16.470Z,62.43
2022-07-29T00:08:43.825Z,61.87
2022-07-29T00:11:11.109Z,61.88
2022-07-29T00:13:38.399Z,62.38
2022-07-29T00:16:06.078Z,61.90
2022-07-29T00:18:33.894Z,62.04
2022-07-29T00:21:01.237Z,62.85
2022-07-29T00:23:29.239Z,62.08
2022-07-29T00:25:57.076Z,62.26
2022-07-29T00:28:24.249Z,62.19
2022-07-29T00:30:51.589Z,62.36
2022-07-29T00:33:18.878Z,62.52
2022-07-29T00:35:46.051Z,62.65
2022-07-29T00:38:19.240Z,62.60
2022-07-29T00:40:47.893Z,63.36
2022-07-29T00:43:16.216Z,63.26
2022-07-29T00:45:44.124Z,63.64
2022-07-29T00:48:11.519Z,64.03
2022-07-29T00:50:39.383Z,64.00
2022-07-29T00:53:12.917Z,63.95
2022-07-29T00:55:40.182Z,63.92
2022-07-29T00:58:08.260Z,63.95
2022-07-29T01:00:35.791Z,64.29
2022-07-29T01:03:02.996Z,63.75
2022-07-29T01:05:48.458Z,64.24
2022-07-29T01:08:21.203Z,64.58
2022-07-29T01:10:50.083Z,64.14
2022-07-29T01:13:18.467Z,64.20
2022-07-29T01:15:56.594Z,64.48
2022-07-29T01:18:38.827Z,64.20
2022-07-29T01:21:11.989Z,64.35
2022-07-29T01:24:32.423Z,64.53
2022-07-29T01:27:33.534Z,64.46
2022-07-29T01:30:05.149Z,64.68
2022-07-29T01:32:40.274Z,64.11
2022-07-29T01:35:35.086Z,64.21
2022-07-29T01:38:23.163Z,64.84
2022-07-29T01:41:11.541Z,65.35
2022-07-29T01:44:00.309Z,65.78
2022-07-29T01:46:40.656Z,65.96
2022-07-29T01:49:21.415Z,65.98
2022-07-29T01:52:06.506Z,66.47
2022-07-29T01:54:46.853Z,66.34
2022-07-29T01:57:20.835Z,67.06
2022-07-29T01:59:51.986Z,67.67
2022-07-29T02:02:21.792Z,68.46
2022-07-29T02:04:51.346Z,70.30
2022-07-29T02:07:23.129Z,70.61
2022-07-29T02:09:53.882Z,72.44
2022-07-29T02:12:25.107Z,75.78
2022-07-29T02:14:57.262Z,77.59
2022-07-29T02:17:40.860Z,80.17
2022-07-29T02:20:10.746Z,80.90
2022-07-29T02:22:42.029Z,83.18
2022-07-29T02:25:13.750Z,83.97
2022-07-29T02:27:44.205Z,85.71
2022-07-29T02:30:13.667Z,87.96
2022-07-29T02:32:43.205Z,89.23
2022-07-29T02:35:14.517Z,89.90
2022-07-29T02:37:45.542Z,90.04
2022-07-29T02:40:16.237Z,91.50
2022-07-29T02:42:47.437Z,92.87
2022-07-29T02:45:14.678Z,94.09
2022-07-29T02:47:50.635Z,96.00
2022-07-29T02:50:35.741Z,96.30
2022-07-29T02:53:23.511Z,97.18
2022-07-29T02:55:59.985Z,97.93
2022-07-29T02:58:41.509Z,98.78
2022-07-29T03:01:24.862Z,99.41
2022-07-29T03:03:56.046Z,100.00
2022-07-29T03:06:37.968Z,100.00
2022-07-29T03:09:13.483Z,100.00
2022-07-29T03:11:50.610Z,100.00
2022-07-29T03:14:21.001Z,100.00
2022-07-29T03:16:50.617Z,100.00
2022-07-29T03:19:20.055Z,100.00
2022-07-29T03:21:47.868Z,100.00
2022-07-29T03:24:37.261Z,100.00
2022-07-29T03:27:06.481Z,100.00
2022-07-29T03:29:34.839Z,100.00
2022-07-29T03:32:08.397Z,100.00
2022-07-29T03:34:38.891Z,100.00
2022-07-29T03:37:07.454Z,100.00
2022-07-29T03:39:42.429Z,100.00
2022-07-29T03:42:16.228Z,100.00
2022-07-29T03:44:49.855Z,100.00
2022-07-29T03:47:23.683Z,100.00
2022-07-29T03:50:16.300Z,100.00
2022-07-29T03:52:43.719Z,100.00
2022-07-29T03:55:15.158Z,100.00
2022-07-29T03:57:46.112Z,100.00
2022-07-29T04:00:16.505Z,100.00
2022-07-29T04:02:50.066Z,100.00
2022-07-29T04:05:19.883Z,100.00
2022-07-29T04:07:49.552Z,100.00
2022-07-29T04:10:30.171Z,100.00
2022-07-29T04:13:00.898Z,100.00
2022-07-29T04:15:31.113Z,100.00
2022-07-29T04:18:00.359Z,100.00
2022-07-29T04:20:28.013Z,100.00
2022-07-29T04:22:55.306Z,100.00
2022-07-29T04:25:22.622Z,100.00
2022-07-29T04:28:01.992Z,100.00
2022-07-29T04:30:31.791Z,100.00
2022-07-29T04:32:59.770Z,100.00
2022-07-29T04:35:28.121Z,100.00
2022-07-29T04:37:55.341Z,100.00
2022-07-29T04:40:22.704Z,100.00
2022-07-29T04:42:49.967Z,100.00
2022-07-29T04:45:22.488Z,100.00
2022-07-29T04:47:51.119Z,100.00
2022-07-29T04:50:18.619Z,100.00
2022-07-29T04:52:45.999Z,100.00
2022-07-29T04:55:13.388Z,100.00
2022-07-29T04:57:40.578Z,100.00
2022-07-29T05:00:10.253Z,100.00
2022-07-29T05:02:37.571Z,100.00
2022-07-29T05:05:05.606Z,100.00
2022-07-29T05:07:32.847Z,100.00
2022-07-29T05:10:00.426Z,100.00
2022-07-29T05:12:28.747Z,100.00
2022-07-29T05:14:56.090Z,100.00
2022-07-29T05:17:23.305Z,100.00
2022-07-29T05:19:52.230Z,100.00
2022-07-29T05:22:21.716Z,100.00
2022-07-29T05:24:49.009Z,100.00
2022-07-29T05:27:16.378Z,100.00
2022-07-29T05:29:45.722Z,100.00
2022-07-29T05:32:16.381Z,100.00
2022-07-29T05:34:50.344Z,100.00
2022-07-29T05:37:21.225Z,100.00
2022-07-29T05:39:56.348Z,100.00
2022-07-29T05:42:26.863Z,100.00
2022-07-29T05:44:54.717Z,100.00
2022-07-29T05:47:22.616Z,100.00
2022-07-29T05:49:50.039Z,100.00
2022-07-29T05:52:17.857Z,100.00
2022-07-29T05:54:45.222Z,100.00
2022-07-29T05:57:22.969Z,100.00
2022-07-29T05:59:52.285Z,100.00
2022-07-29T06:02:19.853Z,100.00
2022-07-29T06:04:47.195Z,100.00
2022-07-29T06:07:14.465Z,100.00
2022-07-29T06:09:41.718Z,100.00
2022-07-29T06:12:09.630Z,100.00
2022-07-29T06:14:37.028Z,100.00
2022-07-29T06:17:04.792Z,100.00
2022-07-29T06:19:32.045Z,100.00
2022-07-29T06:21:59.486Z,100.00
2022-07-29T06:24:26.782Z,100.00
2022-07-29T06:26:53.961Z,100.00
2022-07-29T06:29:21.266Z,99.50
2022-07-29T06:31:48.497Z,100.00
2022-07-29T06:34:16.677Z,99.74
2022-07-29T06:36:45.019Z,99.08
2022-07-29T06:39:13.691Z,99.13
2022-07-29T06:41:41.034Z,99.18
2022-07-29T06:44:11.155Z,99.21
2022-07-29T06:46:38.474Z,98.37
2022-07-29T06:49:07.000Z,99.08
2022-07-29T06:51:34.982Z,98.71
2022-07-29T06:54:03.730Z,98.73
2022-07-29T06:56:40.234Z,98.27
2022-07-29T06:59:10.616Z,97.91
2022-07-29T07:01:44.172Z,96.50
2022-07-29T07:04:13.366Z,94.94
2022-07-29T07:06:40.913Z,93.47
2022-07-29T07:09:08.328Z,94.05
2022-07-29T07:11:35.919Z,94.29
2022-07-29T07:14:04.363Z,94.21
2022-07-29T07:16:33.130Z,93.21
2022-07-29T07:19:01.544Z,94.11
2022-07-29T07:21:30.674Z,93.25
2022-07-29T07:23:59.726Z,93.79
2022-07-29T07:26:28.093Z,94.08
2022-07-29T07:28:55.657Z,92.34
2022-07-29T07:31:23.376Z,92.11
2022-07-29T07:33:50.580Z,91.80
2022-07-29T07:36:17.755Z,92.39
2022-07-29T07:38:45.093Z,92.50
2022-07-29T07:41:12.377Z,91.20
2022-07-29T07:43:39.554Z,89.79
2022-07-29T07:46:06.900Z,89.76
2022-07-29T07:48:35.809Z,91.15
2022-07-29T07:51:03.269Z,91.31
2022-07-29T07:53:31.454Z,91.85
2022-07-29T07:56:15.472Z,91.23
2022-07-29T07:58:42.826Z,90.11
2022-07-29T08:01:10.994Z,90.00
2022-07-29T08:03:39.814Z,90.63
2022-07-29T08:06:07.524Z,91.26
2022-07-29T08:08:34.770Z,90.11
2022-07-29T08:11:08.356Z,90.29
2022-07-29T08:13:38.133Z,91.15
2022-07-29T08:16:16.021Z,90.91
2022-07-29T08:18:46.391Z,90.51
2022-07-29T08:21:16.412Z,90.27
2022-07-29T08:23:57.999Z,89.64
2022-07-29T08:26:27.116Z,88.38
2022-07-29T08:28:54.512Z,88.13
2022-07-29T08:31:21.897Z,88.95
2022-07-29T08:33:49.124Z,88.63
2022-07-29T08:36:17.019Z,86.72
2022-07-29T08:38:44.299Z,86.10
2022-07-29T08:41:11.603Z,83.15
2022-07-29T08:43:41.912Z,82.98
2022-07-29T08:46:09.248Z,79.22
2022-07-29T08:48:37.992Z,77.26
2022-07-29T08:51:08.938Z,75.07
2022-07-29T08:53:39.092Z,72.21
2022-07-29T08:56:07.431Z,69.82
2022-07-29T08:58:36.915Z,67.97
2022-07-29T09:01:07.634Z,67.31
2022-07-29T09:03:41.583Z,64.32
2022-07-29T09:06:09.458Z,62.81
2022-07-29T09:08:36.660Z,63.24
2022-07-29T09:11:05.313Z,60.11
2022-07-29T09:13:33.304Z,59.47
2022-07-29T09:16:03.494Z,60.02
2022-07-29T09:18:44.561Z,58.95
2022-07-29T09:21:37.339Z,58.45
2022-07-29T09:24:13.345Z,57.96
2022-07-29T09:26:46.585Z,57.20
2022-07-29T09:29:24.430Z,55.82
2022-07-29T09:31:55.149Z,56.27
2022-07-29T09:34:32.450Z,55.82
2022-07-29T09:36:59.718Z,55.11
2022-07-29T09:39:38.836Z,52.90
2022-07-29T09:42:07.931Z,52.07
2022-07-29T09:44:51.594Z,51.94
2022-07-29T09:47:22.775Z,50.72
2022-07-29T09:50:01.921Z,50.45
2022-07-29T09:52:31.286Z,47.38
2022-07-29T09:55:17.847Z,46.32
2022-07-29T09:57:47.776Z,44.90
2022-07-29T10:00:20.960Z,44.55
2022-07-29T10:02:49.910Z,43.00
2022-07-29T10:05:36.909Z,42.94
2022-07-29T10:08:04.804Z,41.56
2022-07-29T10:10:36.603Z,41.45
2022-07-29T10:13:16.344Z,40.80
2022-07-29T10:15:47.292Z,40.41
2022-07-29T10:18:18.500Z,40.85
2022-07-29T10:20:46.229Z,38.69
2022-07-29T10:23:13.706Z,37.55
2022-07-29T10:25:46.066Z,38.41
2022-07-29T10:28:16.452Z,39.67
2022-07-29T10:30:46.536Z,39.63
2022-07-29T10:33:52.451Z,38.02
2022-07-29T10:37:19.570Z,38.35
2022-07-29T10:41:19.305Z,39.32
2022-07-29T10:43:51.338Z,38.13
2022-07-29T10:46:20.443Z,36.76
2022-07-29T10:49:17.558Z,36.71
2022-07-29T10:52:11.457Z,37.32
2022-07-29T10:54:48.456Z,36.16
2022-07-29T10:57:53.948Z,37.43
2022-07-29T11:00:31.825Z,37.52
2022-07-29T11:03:00.985Z,36.13
2022-07-29T11:05:59.440Z,36.66
2022-07-29T11:08:28.277Z,37.61
2022-07-29T11:11:22.400Z,37.50
2022-07-29T11:13:57.046Z,36.28
2022-07-29T11:16:24.994Z,35.86
2022-07-29T11:21:59.474Z,34.82
2022-07-29T11:24:33.048Z,35.09
2022-07-29T11:27:21.172Z,33.66
2022-07-29T11:30:04.672Z,33.29
2022-07-29T11:32:48.444Z,33.75
2022-07-29T11:35:38.382Z,33.63
2022-07-29T11:41:31.711Z,33.70
2022-07-29T11:44:02.639Z,33.84
2022-07-29T11:46:53.882Z,33.67
2022-07-29T11:49:32.062Z,33.49
2022-07-29T11:52:04.428Z,33.35
2022-07-29T11:54:38.681Z,33.04
2022-07-29T11:57:36.310Z,34.21
2022-07-29T12:00:12.484Z,33.97
2022-07-29T12:02:48.281Z,34.24
2022-07-29T12:05:24.012Z,34.31
2022-07-29T12:08:22.608Z,35.62
2022-07-29T12:10:52.241Z,35.98
2022-07-29T12:13:22.444Z,37.05
2022-07-29T12:15:59.723Z,36.78
2022-07-29T12:18:28.012Z,37.54
2022-07-29T12:21:04.672Z,37.65
2022-07-29T12:23:34.837Z,38.72
2022-07-29T12:26:07.691Z,39.56
2022-07-29T12:28:39.959Z,39.30
2022-07-29T12:31:44.170Z,38.96
2022-07-29T12:34:04.441Z,39.20
2022-07-29T12:36:31.879Z,39.01
2022-07-29T12:38:59.180Z,38.52
2022-07-29T12:41:29.981Z,40.11
2022-07-29T12:43:57.593Z,38.82
2022-07-29T12:46:24.856Z,39.81
2022-07-29T12:48:59.498Z,38.96
2022-07-29T12:51:41.581Z,39.37
2022-07-29T12:54:12.417Z,39.61
2022-07-29T12:56:44.155Z,40.29
2022-07-29T12:59:23.102Z,39.57
2022-07-29T13:01:53.164Z,39.13
2022-07-29T13:04:34.316Z,39.47
2022-07-29T13:07:08.361Z,39.13
2022-07-29T13:09:45.722Z,38.49
2022-07-29T13:12:15.434Z,38.73
2022-07-29T13:14:47.545Z,37.59
2022-07-29T13:17:17.038Z,37.74
2022-07-29T13:19:51.792Z,36.81
2022-07-29T13:22:23.573Z,37.53
2022-07-29T13:24:53.555Z,38.45
2022-07-29T13:27:33.954Z,37.88
2022-07-29T13:30:06.461Z,38.17
2022-07-29T13:32:37.483Z,38.87
2022-07-29T13:35:09.847Z,39.37
2022-07-29T13:37:39.492Z,38.42
2022-07-29T13:40:10.219Z,37.87
2022-07-29T13:42:38.383Z,37.01
2022-07-29T13:45:07.762Z,36.40
2022-07-29T13:47:35.351Z,36.42
2022-07-29T13:50:06.224Z,35.52
2022-07-29T13:52:35.518Z,34.64
2022-07-29T13:55:04.241Z,33.71
2022-07-29T13:57:31.921Z,33.48
2022-07-29T13:59:59.284Z,32.02
2022-07-29T14:02:26.569Z,31.26
2022-07-29T14:04:55.484Z,31.13
2022-07-29T14:07:23.728Z,30.82
2022-07-29T14:09:51.773Z,30.79
2022-07-29T14:12:19.961Z,29.95
2022-07-29T14:14:47.783Z,29.72
2022-07-29T14:17:16.611Z,28.47
2022-07-29T14:19:44.052Z,29.12
2022-07-29T14:22:11.312Z,28.68
2022-07-29T14:24:40.279Z,27.23
2022-07-29T14:27:09.150Z,27.19
2022-07-29T14:29:38.768Z,27.00
2022-07-29T14:32:15.854Z,26.73
2022-07-29T14:34:43.094Z,27.04
2022-07-29T14:37:15.862Z,26.52
2022-07-29T14:39:43.637Z,26.51
2022-07-29T14:42:13.021Z,26.76
2022-07-29T14:44:42.505Z,26.51
2022-07-29T14:47:10.399Z,27.38
2022-07-29T14:49:37.883Z,28.59
2022-07-29T14:52:06.106Z,28.32
2022-07-29T14:54:33.933Z,28.09
2022-07-29T14:57:01.225Z,27.26
2022-07-29T14:59:28.461Z,27.74
2022-07-29T15:01:55.905Z,26.18
2022-07-29T15:04:23.579Z,25.46
2022-07-29T15:06:51.143Z,25.94
2022-07-29T15:09:18.958Z,26.64
2022-07-29T15:11:46.180Z,25.77
2022-07-29T15:14:13.629Z,25.59
2022-07-29T15:16:43.955Z,25.98
2022-07-29T15:19:14.154Z,26.44
2022-07-29T15:21:48.428Z,25.67
2022-07-29T15:24:20.560Z,26.25
2022-07-29T15:26:48.703Z,26.08
2022-07-29T15:29:16.384Z,26.51
2022-07-29T15:31:44.532Z,25.62
2022-07-29T15:34:11.843Z,26.24
2022-07-29T15:36:54.752Z,26.04
2022-07-29T15:39:23.530Z,26.72
2022-07-29T15:41:52.132Z,27.08
2022-07-29T15:44:21.183Z,26.79
2022-07-29T15:47:06.124Z,26.93
2022-07-29T15:49:47.607Z,27.45
2022-07-29T15:52:25.807Z,28.45
2022-07-29T15:54:57.835Z,29.31
2022-07-29T15:57:25.995Z,30.54
2022-07-29T15:59:53.702Z,30.63
2022-07-29T16:02:21.192Z,31.48
2022-07-29T16:04:48.727Z,32.67
2022-07-29T16:07:16.508Z,32.80
2022-07-29T16:09:49.370Z,32.98
2022-07-29T16:12:18.383Z,33.99
2022-07-29T16:14:46.046Z,33.99
2022-07-29T16:17:14.763Z,35.09
2022-07-29T16:19:44.543Z,35.54
2022-07-29T16:22:13.218Z,35.18
2022-07-29T16:24:40.693Z,35.63
2022-07-29T16:27:08.651Z,35.37
2022-07-29T16:29:37.134Z,35.50
2022-07-29T16:32:06.557Z,35.18
2022-07-29T16:34:34.281Z,35.62
2022-07-29T16:37:01.750Z,35.45
2022-07-29T16:39:29.554Z,35.62
2022-07-29T16:42:00.025Z,35.75
2022-07-29T16:44:28.551Z,36.02
2022-07-29T16:46:58.055Z,35.48
2022-07-29T16:49:28.041Z,36.06
2022-07-29T16:51:55.549Z,35.97
2022-07-29T16:54:23.019Z,35.86
2022-07-29T16:56:50.268Z,34.94
2022-07-29T16:59:17.594Z,34.95
2022-07-29T17:01:44.886Z,34.98
2022-07-29T17:04:14.822Z,35.38
2022-07-29T17:06:42.895Z,35.20
2022-07-29T17:09:15.013Z,35.49
2022-07-29T17:11:54.049Z,36.39
2022-07-29T17:14:29.363Z,36.02
2022-07-29T17:17:02.206Z,35.54
2022-07-29T17:19:36.251Z,36.12
2022-07-29T17:22:14.305Z,36.49
2022-07-29T17:24:46.782Z,35.89
2022-07-29T17:27:15.065Z,36.78
2022-07-29T17:29:42.867Z,36.50
2022-07-29T17:32:10.867Z,36.07
2022-07-29T17:34:41.012Z,36.20
2022-07-29T17:37:12.219Z,35.82
2022-07-29T17:39:41.662Z,36.74
2022-07-29T17:42:13.174Z,36.26
2022-07-29T17:44:40.924Z,36.48
2022-07-29T17:47:15.985Z,36.80
2022-07-29T17:49:45.724Z,37.20
2022-07-29T17:52:13.240Z,37.07
2022-07-29T17:54:40.439Z,37.12
2022-07-29T17:57:08.145Z,37.22
2022-07-29T17:59:35.308Z,37.48
2022-07-29T18:02:02.653Z,37.52
2022-07-29T18:04:31.371Z,38.30
2022-07-29T18:06:58.850Z,38.26
2022-07-29T18:09:26.328Z,38.76
2022-07-29T18:11:53.620Z,39.19
2022-07-29T18:14:20.782Z,39.28
2022-07-29T18:16:48.080Z,39.32
2022-07-29T18:19:16.087Z,39.77
2022-07-29T18:21:53.459Z,40.00
2022-07-29T18:24:27.424Z,40.49
2022-07-29T18:26:54.942Z,40.37
2022-07-29T18:29:22.328Z,40.41
2022-07-29T18:31:50.097Z,40.88
2022-07-29T18:34:17.550Z,40.96
2022-07-29T18:36:46.094Z,41.20
2022-07-29T18:39:20.338Z,41.40
2022-07-29T18:41:51.640Z,41.82
2022-07-29T18:44:22.854Z,42.38
2022-07-29T18:46:52.437Z,42.77
2022-07-29T18:49:19.949Z,43.36
2022-07-29T18:51:48.901Z,43.56
2022-07-29T18:54:17.567Z,43.93
2022-07-29T18:56:46.938Z,44.18
2022-07-29T18:59:19.661Z,44.14
2022-07-29T19:01:48.861Z,45.16
2022-07-29T19:04:17.869Z,45.73
2022-07-29T19:06:45.592Z,45.98
2022-07-29T19:09:13.229Z,46.39
2022-07-29T19:11:40.644Z,47.02
2022-07-29T19:14:08.079Z,46.87
2022-07-29T19:16:35.872Z,47.11
2022-07-29T19:19:04.333Z,47.85
2022-07-29T19:21:31.657Z,48.15
2022-07-29T19:24:04.175Z,48.09
2022-07-29T19:26:43.980Z,48.72
2022-07-29T19:29:11.354Z,48.99
2022-07-29T19:31:40.956Z,48.44
2022-07-29T19:34:08.866Z,48.88
2022-07-29T19:36:36.539Z,49.26
2022-07-29T19:39:04.225Z,49.45
2022-07-29T19:41:31.675Z,49.26
2022-07-29T19:43:58.882Z,49.79
2022-07-29T19:46:28.961Z,50.65
2022-07-29T19:48:57.046Z,50.30
2022-07-29T19:51:24.593Z,50.91
2022-07-29T19:53:52.351Z,51.32
2022-07-29T19:56:19.639Z,51.89
2022-07-29T19:58:46.889Z,51.63
2022-07-29T20:01:15.227Z,52.02
2022-07-29T20:03:44.689Z,52.30
2022-07-29T20:06:12.649Z,52.91
2022-07-29T20:08:40.057Z,52.46
2022-07-29T20:11:07.501Z,53.31
2022-07-29T20:13:35.295Z,54.07
2022-07-29T20:16:05.592Z,54.16
2022-07-29T20:18:32.981Z,53.66
2022-07-29T20:21:01.378Z,54.06
2022-07-29T20:23:28.602Z,54.54
2022-07-29T20:26:01.323Z,54.42
2022-07-29T20:28:28.510Z,55.37
2022-07-29T20:30:55.778Z,55.28
2022-07-29T20:33:23.024Z,55.93
2022-07-29T20:35:50.297Z,56.27
2022-07-29T20:38:18.447Z,56.23
2022-07-29T20:40:46.234Z,56.69
2022-07-29T20:43:13.523Z,56.31
2022-07-29T20:45:40.793Z,57.15
2022-07-29T20:48:08.592Z,57.35
2022-07-29T20:50:36.109Z,57.13
2022-07-29T20:53:03.585Z,57.78
2022-07-29T20:55:32.003Z,58.10
2022-07-29T20:57:59.396Z,58.42
2022-07-29T21:00:28.471Z,59.38
2022-07-29T21:02:55.722Z,59.58
2022-07-29T21:05:23.296Z,60.00
2022-07-29T21:07:51.281Z,61.09
2022-07-29T21:10:20.861Z,61.21
2022-07-29T21:12:48.614Z,61.71
2022-07-29T21:15:16.336Z,62.07
2022-07-29T21:17:47.129Z,62.38
2022-07-29T21:20:19.582Z,63.03
2022-07-29T21:22:46.944Z,63.71
2022-07-29T21:25:14.160Z,63.52
2022-07-29T21:28:00.185Z,63.72
2022-07-29T21:30:27.453Z,63.97
2022-07-29T21:32:54.699Z,63.98
2022-07-29T21:36:01.570Z,64.15
2022-07-29T21:38:09.082Z,65.06
2022-07-29T21:40:36.405Z,65.46
2022-07-29T21:43:04.441Z,66.13
2022-07-29T21:45:31.665Z,66.16
2022-07-29T21:47:59.038Z,66.24
2022-07-29T21:50:26.602Z,66.19
2022-07-29T21:52:53.952Z,66.68
2022-07-29T21:55:22.857Z,67.27
2022-07-29T21:57:56.406Z,66.95
2022-07-29T22:00:25.658Z,67.43
2022-07-29T22:02:53.634Z,68.47
2022-07-29T22:05:21.662Z,68.50
2022-07-29T22:07:55.676Z,67.74
2022-07-29T22:10:26.989Z,69.05
2022-07-29T22:12:58.728Z,69.59
2022-07-29T22:15:27.585Z,69.48
2022-07-29T22:17:54.905Z,69.46
2022-07-29T22:20:22.541Z,70.30
2022-07-29T22:22:50.378Z,70.00
2022-07-29T22:25:17.858Z,70.85
2022-07-29T22:27:45.162Z,71.68
2022-07-29T22:30:13.781Z,72.13
2022-07-29T22:32:41.520Z,72.05
2022-07-29T22:35:10.358Z,72.12
2022-07-29T22:37:37.761Z,72.37
2022-07-29T22:40:06.447Z,72.58
2022-07-29T22:42:35.514Z,73.53
2022-07-29T22:45:03.463Z,74.18
2022-07-29T22:47:46.610Z,74.58
2022-07-29T22:50:17.129Z,75.00
2022-07-29T22:52:46.204Z,75.09
2022-07-29T22:55:14.446Z,75.29
2022-07-29T22:57:42.421Z,75.58
2022-07-29T23:00:10.866Z,76.41
2022-07-29T23:02:38.230Z,75.92
2022-07-29T23:05:06.734Z,76.19
2022-07-29T23:07:33.947Z,76.75
2022-07-29T23:10:02.186Z,76.39
2022-07-29T23:12:29.344Z,77.48
2022-07-29T23:14:56.517Z,78.64
2022-07-29T23:17:23.774Z,77.79
2022-07-29T23:19:51.107Z,79.03
2022-07-29T23:22:18.628Z,78.95
2022-07-29T23:24:45.969Z,79.94
2022-07-29T23:27:13.178Z,80.54
2022-07-29T23:29:40.376Z,80.62
2022-07-29T23:32:07.783Z,81.37
2022-07-29T23:34:34.933Z,81.12
2022-07-29T23:37:02.349Z,81.41
2022-07-29T23:39:29.975Z,82.25
2022-07-29T23:41:57.158Z,82.86
2022-07-29T23:44:24.580Z,83.36
2022-07-29T23:46:51.799Z,84.66
2022-07-29T23:49:19.125Z,85.22
2022-07-29T23:51:46.478Z,85.64
2022-07-29T23:54:13.709Z,85.99
2022-07-29T23:56:40.914Z,86.59
2022-07-29T23:59:08.096Z,87.77
